createdAt,value
2018-08-22T00:01:46.838Z,61.86
2018-08-22T00:04:20.282Z,61.99
2018-08-22T00:06:53.715Z,62.01
2018-08-22T00:09:27.111Z,61.97
2018-08-22T00:12:00.734Z,62.48
2018-08-22T00:14:34.208Z,62.59
2018-08-22T00:17:07.656Z,62.16
2018-08-22T00:19:41.068Z,62.09
2018-08-22T00:22:14.507Z,62.31
2018-08-22T00:24:47.911Z,62.44
2018-08-22T00:27:21.363Z,63.00
2018-08-22T00:29:54.784Z,62.22
2018-08-22T00:32:28.236Z,62.30
2018-08-22T00:35:01.646Z,62.42
2018-08-22T00:37:35.067Z,62.54
2018-08-22T00:40:08.469Z,62.26
2018-08-22T00:42:41.915Z,62.72
2018-08-22T00:45:15.328Z,63.23
2018-08-22T00:47:48.763Z,62.82
2018-08-22T00:50:22.187Z,62.41
2018-08-22T00:52:55.614Z,62.72
2018-08-22T00:55:29.003Z,62.56
2018-08-22T00:58:02.539Z,62.68
2018-08-22T01:00:35.941Z,62.55
2018-08-22T01:03:09.421Z,62.61
2018-08-22T01:05:42.816Z,62.66
2018-08-22T01:08:16.289Z,62.43
2018-08-22T01:10:49.667Z,62.72
2018-08-22T01:13:23.087Z,63.22
2018-08-22T01:15:56.555Z,63.15
2018-08-22T01:18:29.998Z,63.04
2018-08-22T01:21:03.385Z,62.93
2018-08-22T01:23:36.844Z,62.86
2018-08-22T01:26:10.232Z,62.67
2018-08-22T01:28:43.668Z,63.39
2018-08-22T01:31:17.132Z,62.85
2018-08-22T01:33:50.622Z,63.05
2018-08-22T01:36:24.050Z,62.73
2018-08-22T01:38:57.473Z,62.99
2018-08-22T01:41:31.100Z,62.70
2018-08-22T01:44:04.543Z,62.95
2018-08-22T01:46:37.928Z,63.17
2018-08-22T01:49:11.347Z,62.77
2018-08-22T01:51:44.747Z,62.81
2018-08-22T01:54:18.193Z,63.12
2018-08-22T01:56:51.596Z,62.97
2018-08-22T01:59:25.022Z,63.50
2018-08-22T02:01:58.432Z,63.46
2018-08-22T02:04:31.876Z,63.45
2018-08-22T02:07:05.399Z,63.39
2018-08-22T02:09:38.864Z,63.42
2018-08-22T02:12:12.305Z,63.68
2018-08-22T02:14:45.714Z,63.24
2018-08-22T02:17:19.110Z,63.25
2018-08-22T02:19:52.520Z,63.00
2018-08-22T02:22:25.925Z,63.23
2018-08-22T02:24:59.538Z,63.49
2018-08-22T02:27:32.929Z,63.33
2018-08-22T02:30:06.368Z,63.97
2018-08-22T02:32:39.770Z,63.85
2018-08-22T02:35:13.209Z,63.66
2018-08-22T02:37:46.609Z,63.42
2018-08-22T02:40:20.022Z,63.39
2018-08-22T02:42:53.433Z,63.54
2018-08-22T02:45:26.861Z,63.49
2018-08-22T02:48:00.296Z,63.60
2018-08-22T02:50:33.691Z,63.22
2018-08-22T02:53:07.102Z,63.28
2018-08-22T02:55:40.893Z,63.43
2018-08-22T02:58:14.300Z,63.31
2018-08-22T03:00:47.754Z,63.14
2018-08-22T03:03:21.157Z,63.24
2018-08-22T03:05:54.592Z,63.55
2018-08-22T03:08:28.002Z,63.23
2018-08-22T03:11:01.482Z,63.36
2018-08-22T03:13:34.876Z,63.62
2018-08-22T03:16:08.359Z,63.66
2018-08-22T03:18:41.783Z,63.47
2018-08-22T03:21:15.239Z,63.71
2018-08-22T03:23:48.692Z,63.89
2018-08-22T03:26:22.127Z,63.86
2018-08-22T03:28:55.560Z,63.95
2018-08-22T03:31:28.953Z,63.92
2018-08-22T03:34:02.393Z,63.81
2018-08-22T03:36:35.787Z,64.02
2018-08-22T03:39:09.597Z,63.92
2018-08-22T03:41:43.007Z,64.03
2018-08-22T03:44:16.443Z,64.10
2018-08-22T03:46:49.832Z,63.89
2018-08-22T03:49:23.234Z,63.87
2018-08-22T03:51:56.624Z,64.41
2018-08-22T03:54:30.033Z,64.13
2018-08-22T03:57:03.461Z,64.13
2018-08-22T03:59:36.892Z,64.21
2018-08-22T04:02:10.344Z,64.19
2018-08-22T04:04:43.785Z,64.11
2018-08-22T04:07:17.215Z,64.27
2018-08-22T04:09:50.677Z,64.26
2018-08-22T04:12:24.091Z,63.71
2018-08-22T04:14:57.486Z,64.36
2018-08-22T04:17:34.963Z,64.53
2018-08-22T04:20:08.785Z,64.29
2018-08-22T04:22:42.232Z,64.62
2018-08-22T04:25:15.657Z,64.35
2018-08-22T04:27:49.060Z,64.33
2018-08-22T04:30:22.476Z,64.58
2018-08-22T04:32:55.852Z,64.74
2018-08-22T04:35:29.270Z,64.70
2018-08-22T04:38:02.690Z,64.39
2018-08-22T04:40:36.110Z,64.32
2018-08-22T04:43:09.545Z,63.89
2018-08-22T04:45:42.954Z,64.56
2018-08-22T04:48:16.377Z,64.69
2018-08-22T04:50:49.795Z,64.49
2018-08-22T04:53:23.368Z,64.41
2018-08-22T04:55:56.806Z,65.03
2018-08-22T04:58:30.263Z,65.02
2018-08-22T05:01:03.680Z,64.97
2018-08-22T05:03:37.075Z,65.16
2018-08-22T05:06:10.500Z,64.89
2018-08-22T05:08:43.892Z,64.50
2018-08-22T05:11:17.339Z,65.11
2018-08-22T05:13:50.733Z,64.82
2018-08-22T05:16:24.152Z,64.61
2018-08-22T05:18:57.588Z,64.58
2018-08-22T05:21:31.005Z,64.25
2018-08-22T05:24:04.419Z,63.68
2018-08-22T05:26:37.877Z,63.93
2018-08-22T05:29:11.480Z,63.78
2018-08-22T05:31:44.901Z,63.42
2018-08-22T05:34:18.328Z,63.13
2018-08-22T05:36:51.760Z,62.49
2018-08-22T05:39:25.165Z,62.78
2018-08-22T05:41:58.586Z,61.95
2018-08-22T05:44:32.057Z,62.23
2018-08-22T05:47:05.652Z,61.74
2018-08-22T05:49:39.085Z,61.47
2018-08-22T05:52:12.497Z,61.31
2018-08-22T05:54:45.875Z,61.12
2018-08-22T05:57:19.265Z,60.11
2018-08-22T05:59:52.650Z,59.90
2018-08-22T06:02:26.053Z,59.91
2018-08-22T06:04:59.478Z,59.75
2018-08-22T06:07:32.882Z,59.23
2018-08-22T06:10:06.387Z,58.81
2018-08-22T06:12:39.804Z,59.21
2018-08-22T06:15:13.217Z,59.07
2018-08-22T06:17:46.652Z,58.59
2018-08-22T06:20:20.077Z,57.81
2018-08-22T06:22:53.511Z,57.51
2018-08-22T06:25:26.969Z,57.36
2018-08-22T06:28:00.356Z,57.91
2018-08-22T06:30:33.745Z,57.76
2018-08-22T06:33:07.297Z,56.90
2018-08-22T06:35:40.657Z,57.75
2018-08-22T06:38:14.098Z,57.14
2018-08-22T06:40:47.525Z,56.08
2018-08-22T06:43:21.077Z,55.41
2018-08-22T06:45:54.475Z,55.36
2018-08-22T06:48:27.914Z,55.22
2018-08-22T06:51:01.317Z,54.96
2018-08-22T06:53:34.738Z,54.62
2018-08-22T06:56:08.181Z,54.63
2018-08-22T06:58:41.696Z,53.92
2018-08-22T07:01:15.123Z,51.79
2018-08-22T07:03:48.538Z,51.05
2018-08-22T07:06:21.966Z,52.11
2018-08-22T07:08:55.397Z,52.81
2018-08-22T07:11:28.775Z,51.04
2018-08-22T07:14:02.272Z,48.06
2018-08-22T07:16:35.654Z,48.99
2018-08-22T07:19:09.049Z,48.74
2018-08-22T07:21:42.403Z,47.71
2018-08-22T07:24:15.802Z,48.18
2018-08-22T07:26:50.071Z,47.80
2018-08-22T07:29:23.436Z,48.86
2018-08-22T07:31:56.827Z,46.37
2018-08-22T07:34:30.247Z,47.90
2018-08-22T07:37:03.676Z,48.80
2018-08-22T07:39:37.083Z,48.12
2018-08-22T07:42:10.455Z,48.25
2018-08-22T07:44:43.846Z,45.60
2018-08-22T07:47:17.317Z,46.05
2018-08-22T07:49:50.723Z,43.62
2018-08-22T07:52:24.150Z,44.70
2018-08-22T07:54:57.573Z,43.41
2018-08-22T07:57:31.005Z,41.16
2018-08-22T08:00:04.440Z,44.26
2018-08-22T08:02:37.923Z,43.86
2018-08-22T08:05:11.348Z,43.07
2018-08-22T08:07:44.791Z,44.04
2018-08-22T08:10:22.361Z,42.83
2018-08-22T08:12:55.783Z,42.35
2018-08-22T08:15:29.196Z,40.15
2018-08-22T08:18:02.637Z,41.81
2018-08-22T08:20:36.067Z,41.53
2018-08-22T08:23:09.490Z,41.76
2018-08-22T08:25:42.902Z,41.28
2018-08-22T08:28:16.356Z,38.11
2018-08-22T08:30:49.788Z,37.21
2018-08-22T08:33:23.193Z,40.14
2018-08-22T08:35:56.652Z,39.15
2018-08-22T08:38:30.056Z,39.06
2018-08-22T08:41:03.431Z,36.10
2018-08-22T08:43:36.861Z,37.61
2018-08-22T08:46:11.044Z,35.21
2018-08-22T08:48:44.474Z,33.24
2018-08-22T08:51:17.869Z,33.88
2018-08-22T08:53:51.302Z,34.80
2018-08-22T08:56:24.771Z,35.65
2018-08-22T08:58:58.174Z,32.03
2018-08-22T09:01:31.594Z,34.62
2018-08-22T09:04:05.091Z,34.45
2018-08-22T09:06:38.502Z,35.80
2018-08-22T09:09:11.897Z,34.57
2018-08-22T09:12:04.740Z,34.21
2018-08-22T09:14:38.604Z,34.77
2018-08-22T09:17:12.010Z,36.20
2018-08-22T09:19:45.420Z,35.49
2018-08-22T09:22:19.183Z,35.02
2018-08-22T09:24:52.596Z,35.96
2018-08-22T09:27:25.952Z,36.28
2018-08-22T09:29:59.336Z,34.94
2018-08-22T09:32:32.787Z,33.24
2018-08-22T09:35:06.229Z,35.04
2018-08-22T09:37:39.643Z,35.25
2018-08-22T09:40:13.078Z,34.71
2018-08-22T09:42:46.438Z,32.15
2018-08-22T09:45:19.824Z,33.36
2018-08-22T09:47:53.220Z,34.83
2018-08-22T09:50:26.659Z,34.34
2018-08-22T09:53:00.045Z,33.67
2018-08-22T09:55:33.463Z,32.46
2018-08-22T09:58:06.894Z,32.66
2018-08-22T10:00:45.414Z,34.06
2018-08-22T10:03:18.788Z,33.02
2018-08-22T10:05:52.226Z,33.02
2018-08-22T10:08:25.610Z,32.95
2018-08-22T10:10:59.029Z,30.91
2018-08-22T10:13:32.481Z,30.85
2018-08-22T10:16:05.918Z,31.50
2018-08-22T10:18:39.297Z,31.81
2018-08-22T10:21:12.723Z,33.67
2018-08-22T10:23:46.125Z,29.83
2018-08-22T10:26:19.556Z,31.20
2018-08-22T10:28:53.559Z,28.97
2018-08-22T10:31:27.296Z,29.76
2018-08-22T10:34:00.728Z,29.70
2018-08-22T10:36:34.176Z,29.86
2018-08-22T10:39:08.719Z,29.66
2018-08-22T10:41:42.166Z,28.54
2018-08-22T10:44:15.582Z,29.74
2018-08-22T10:46:48.985Z,28.96
2018-08-22T10:49:22.348Z,28.71
2018-08-22T10:51:55.755Z,28.53
2018-08-22T10:54:29.182Z,29.77
2018-08-22T10:57:02.613Z,27.85
2018-08-22T10:59:36.062Z,28.88
2018-08-22T11:02:09.467Z,29.78
2018-08-22T11:04:42.901Z,29.50
2018-08-22T11:07:16.315Z,30.66
2018-08-22T11:09:49.788Z,27.14
2018-08-22T11:12:23.155Z,28.59
2018-08-22T11:14:56.565Z,26.99
2018-08-22T11:17:29.993Z,27.75
2018-08-22T11:20:03.459Z,27.86
2018-08-22T11:22:48.300Z,27.44
2018-08-22T11:25:33.052Z,28.42
2018-08-22T11:28:17.833Z,28.61
2018-08-22T11:31:02.580Z,29.18
2018-08-22T11:33:47.277Z,29.63
2018-08-22T11:36:19.583Z,28.48
2018-08-22T11:38:53.035Z,29.45
2018-08-22T11:41:26.425Z,29.23
2018-08-22T11:43:59.845Z,27.97
2018-08-22T11:46:33.280Z,29.12
2018-08-22T11:49:06.657Z,25.52
2018-08-22T11:51:40.114Z,30.19
2018-08-22T11:54:13.505Z,28.81
2018-08-22T11:56:46.946Z,28.36
2018-08-22T11:59:20.799Z,28.89
2018-08-22T12:01:54.303Z,29.06
2018-08-22T12:04:27.702Z,27.13
2018-08-22T12:07:01.117Z,26.85
2018-08-22T12:09:34.508Z,26.69
2018-08-22T12:12:07.945Z,27.33
2018-08-22T12:14:41.325Z,25.84
2018-08-22T12:17:14.744Z,26.41
2018-08-22T12:19:48.112Z,26.06
2018-08-22T12:22:21.498Z,26.53
2018-08-22T12:24:54.869Z,27.41
2018-08-22T12:27:28.271Z,27.33
2018-08-22T12:30:01.669Z,28.17
2018-08-22T12:32:35.100Z,27.05
2018-08-22T12:35:08.782Z,27.39
2018-08-22T12:37:42.183Z,28.25
2018-08-22T12:40:15.557Z,28.27
2018-08-22T12:42:48.975Z,27.62
2018-08-22T12:45:22.361Z,26.38
2018-08-22T12:47:56.031Z,26.34
2018-08-22T12:50:29.529Z,26.94
2018-08-22T12:53:02.855Z,25.34
2018-08-22T12:55:36.245Z,24.15
2018-08-22T12:58:09.670Z,26.69
2018-08-22T13:00:43.030Z,27.15
2018-08-22T13:03:16.415Z,25.78
2018-08-22T13:05:49.793Z,26.48
2018-08-22T13:08:23.209Z,27.34
2018-08-22T13:10:56.606Z,26.73
2018-08-22T13:13:30.288Z,26.42
2018-08-22T13:16:03.690Z,27.70
2018-08-22T13:18:37.084Z,26.35
2018-08-22T13:21:10.472Z,27.48
2018-08-22T13:23:43.889Z,27.35
2018-08-22T13:26:17.300Z,27.93
2018-08-22T13:28:50.709Z,25.95
2018-08-22T13:31:24.096Z,27.22
2018-08-22T13:33:57.476Z,28.69
2018-08-22T13:36:30.864Z,29.23
2018-08-22T13:39:05.326Z,28.22
2018-08-22T13:41:38.688Z,27.33
2018-08-22T13:44:12.090Z,26.46
2018-08-22T13:46:45.451Z,26.09
2018-08-22T13:49:18.852Z,25.62
2018-08-22T13:51:52.213Z,27.24
2018-08-22T13:54:25.627Z,26.88
2018-08-22T13:56:59.012Z,27.58
2018-08-22T13:59:32.951Z,27.17
2018-08-22T14:02:06.337Z,26.39
2018-08-22T14:04:39.758Z,26.77
2018-08-22T14:07:13.140Z,27.08
2018-08-22T14:09:46.613Z,26.35
2018-08-22T14:12:20.020Z,25.17
2018-08-22T14:14:53.391Z,25.11
2018-08-22T14:17:26.828Z,25.14
2018-08-22T14:20:00.209Z,24.27
2018-08-22T14:22:33.713Z,23.94
2018-08-22T14:25:07.039Z,25.35
2018-08-22T14:27:40.423Z,25.50
2018-08-22T14:30:13.788Z,26.52
2018-08-22T14:32:47.203Z,26.29
2018-08-22T14:35:20.612Z,26.01
2018-08-22T14:37:54.005Z,26.29
2018-08-22T14:40:27.485Z,24.87
2018-08-22T14:43:00.896Z,25.38
2018-08-22T14:45:40.692Z,25.21
2018-08-22T14:48:14.135Z,26.28
2018-08-22T14:50:47.510Z,27.60
2018-08-22T14:53:20.937Z,26.25
2018-08-22T14:55:54.369Z,25.34
2018-08-22T14:58:27.741Z,25.94
2018-08-22T15:01:01.168Z,24.13
2018-08-22T15:03:34.786Z,25.12
2018-08-22T15:06:07.981Z,24.74
2018-08-22T15:08:41.385Z,25.44
2018-08-22T15:11:14.756Z,25.04
2018-08-22T15:13:48.166Z,25.75
2018-08-22T15:16:21.545Z,25.76
2018-08-22T15:18:55.538Z,27.29
2018-08-22T15:21:28.954Z,26.30
2018-08-22T15:24:02.421Z,26.68
2018-08-22T15:26:36.090Z,27.38
2018-08-22T15:29:09.583Z,27.76
2018-08-22T15:31:43.194Z,27.88
2018-08-22T15:34:16.801Z,27.77
2018-08-22T15:36:50.406Z,28.99
2018-08-22T15:39:23.803Z,29.67
2018-08-22T15:41:57.268Z,27.98
2018-08-22T15:44:30.656Z,26.65
2018-08-22T15:47:04.192Z,26.84
2018-08-22T15:49:37.608Z,26.48
2018-08-22T15:52:11.000Z,26.09
2018-08-22T15:54:55.939Z,26.76
2018-08-22T15:57:37.485Z,26.76
2018-08-22T16:00:10.910Z,28.46
2018-08-22T16:02:44.773Z,25.87
2018-08-22T16:05:18.387Z,26.01
2018-08-22T16:07:52.287Z,26.71
2018-08-22T16:10:26.055Z,27.27
2018-08-22T16:12:59.488Z,28.87
2018-08-22T16:15:33.974Z,30.08
2018-08-22T16:18:09.343Z,29.57
2018-08-22T16:20:52.167Z,29.25
2018-08-22T16:23:30.344Z,29.11
2018-08-22T16:26:04.744Z,31.38
2018-08-22T16:28:50.749Z,30.78
2018-08-22T16:31:29.240Z,30.13
2018-08-22T16:34:02.666Z,29.15
2018-08-22T16:36:36.129Z,29.81
2018-08-22T16:39:14.356Z,30.43
2018-08-22T16:41:47.844Z,30.02
2018-08-22T16:44:21.248Z,29.15
2018-08-22T16:46:54.633Z,29.37
2018-08-22T16:49:28.129Z,29.34
2018-08-22T16:52:01.501Z,29.40
2018-08-22T16:54:35.179Z,29.49
2018-08-22T16:57:08.743Z,30.26
2018-08-22T16:59:42.150Z,30.43
2018-08-22T17:02:15.558Z,30.66
2018-08-22T17:04:49.068Z,29.36
2018-08-22T17:07:22.458Z,29.66
2018-08-22T17:09:56.377Z,32.18
2018-08-22T17:12:34.512Z,32.49
2018-08-22T17:15:08.765Z,31.27
2018-08-22T17:17:42.143Z,30.82
2018-08-22T17:20:15.785Z,31.66
2018-08-22T17:22:49.376Z,30.86
2018-08-22T17:25:22.821Z,31.39
2018-08-22T17:27:56.401Z,31.77
2018-08-22T17:30:40.133Z,31.27
2018-08-22T17:33:13.755Z,31.65
2018-08-22T17:35:47.547Z,31.50
2018-08-22T17:38:21.536Z,31.71
2018-08-22T17:40:55.083Z,32.62
2018-08-22T17:43:28.487Z,32.88
2018-08-22T17:46:01.963Z,32.25
2018-08-22T17:48:35.439Z,34.38
2018-08-22T17:51:08.853Z,34.28
2018-08-22T17:53:42.239Z,35.19
2018-08-22T17:56:15.649Z,35.29
2018-08-22T17:58:49.514Z,34.73
2018-08-22T18:01:23.478Z,35.51
2018-08-22T18:03:57.152Z,36.24
2018-08-22T18:06:31.164Z,35.34
2018-08-22T18:09:05.178Z,36.74
2018-08-22T18:11:38.557Z,36.07
2018-08-22T18:14:12.115Z,36.65
2018-08-22T18:16:46.394Z,37.04
2018-08-22T18:19:19.824Z,38.48
2018-08-22T18:21:53.391Z,38.94
2018-08-22T18:24:26.825Z,38.83
2018-08-22T18:27:02.495Z,39.89
2018-08-22T18:29:36.008Z,39.82
2018-08-22T18:32:09.584Z,40.51
2018-08-22T18:34:57.578Z,40.10
2018-08-22T18:37:31.808Z,38.93
2018-08-22T18:40:26.112Z,39.44
2018-08-22T18:43:01.766Z,40.04
2018-08-22T18:45:35.175Z,40.17
2018-08-22T18:48:08.617Z,40.53
2018-08-22T18:50:42.180Z,41.70
2018-08-22T18:53:16.711Z,42.88
2018-08-22T18:55:54.583Z,42.90
2018-08-22T18:58:28.076Z,42.46
2018-08-22T19:01:03.224Z,42.45
2018-08-22T19:03:36.843Z,43.17
2018-08-22T19:06:10.248Z,43.31
2018-08-22T19:08:43.664Z,43.94
2018-08-22T19:11:17.120Z,43.87
2018-08-22T19:13:50.531Z,44.53
2018-08-22T19:16:23.976Z,44.87
2018-08-22T19:18:57.380Z,45.28
2018-08-22T19:21:30.818Z,44.55
2018-08-22T19:24:04.197Z,44.77
2018-08-22T19:26:37.619Z,44.56
2018-08-22T19:29:11.395Z,44.89
2018-08-22T19:31:49.166Z,45.03
2018-08-22T19:34:22.864Z,45.43
2018-08-22T19:36:56.439Z,46.18
2018-08-22T19:39:30.088Z,46.56
2018-08-22T19:42:03.765Z,46.85
2018-08-22T19:44:37.335Z,46.43
2018-08-22T19:47:10.928Z,46.28
2018-08-22T19:49:44.527Z,46.47
2018-08-22T19:52:18.140Z,47.03
2018-08-22T19:54:51.709Z,47.43
2018-08-22T19:57:38.428Z,47.48
2018-08-22T20:00:13.212Z,48.82
2018-08-22T20:02:46.781Z,47.84
2018-08-22T20:05:20.380Z,48.51
2018-08-22T20:07:54.015Z,48.68
2018-08-22T20:10:27.747Z,48.76
2018-08-22T20:13:01.807Z,49.13
2018-08-22T20:15:35.172Z,49.12
2018-08-22T20:18:08.758Z,49.24
2018-08-22T20:20:42.212Z,49.52
2018-08-22T20:23:16.415Z,49.71
2018-08-22T20:25:49.854Z,49.78
2018-08-22T20:28:23.275Z,50.03
2018-08-22T20:31:01.053Z,50.61
2018-08-22T20:33:34.442Z,50.52
2018-08-22T20:36:07.815Z,51.04
2018-08-22T20:38:41.238Z,51.36
2018-08-22T20:41:14.637Z,51.64
2018-08-22T20:43:48.043Z,51.26
2018-08-22T20:46:21.608Z,51.52
2018-08-22T20:48:55.057Z,51.83
2018-08-22T20:51:30.195Z,51.99
2018-08-22T20:54:08.775Z,52.29
2018-08-22T20:56:48.214Z,52.25
2018-08-22T20:59:22.983Z,52.60
2018-08-22T21:02:03.790Z,52.96
2018-08-22T21:04:37.512Z,52.37
2018-08-22T21:07:11.650Z,52.64
2018-08-22T21:09:45.151Z,52.95
2018-08-22T21:12:18.578Z,52.96
2018-08-22T21:14:52.053Z,52.91
2018-08-22T21:17:25.613Z,52.81
2018-08-22T21:19:59.542Z,53.25
2018-08-22T21:22:33.895Z,53.03
2018-08-22T21:25:07.647Z,53.46
2018-08-22T21:27:41.951Z,53.16
2018-08-22T21:30:16.843Z,53.31
2018-08-22T21:32:50.643Z,54.02
2018-08-22T21:35:25.287Z,54.18
2018-08-22T21:38:04.568Z,54.04
2018-08-22T21:40:37.973Z,53.34
2018-08-22T21:43:12.975Z,53.98
2018-08-22T21:45:49.127Z,54.07
2018-08-22T21:48:25.755Z,54.46
2018-08-22T21:50:59.221Z,54.72
2018-08-22T21:53:32.632Z,55.93
2018-08-22T21:56:06.068Z,55.19
2018-08-22T21:58:39.451Z,55.72
2018-08-22T22:01:12.866Z,56.05
2018-08-22T22:03:46.307Z,55.78
2018-08-22T22:06:19.731Z,55.66
2018-08-22T22:08:53.125Z,55.92
2018-08-22T22:11:26.519Z,55.92
2018-08-22T22:14:08.072Z,56.00
2018-08-22T22:16:41.467Z,55.72
2018-08-22T22:19:14.873Z,56.01
2018-08-22T22:21:48.260Z,56.11
2018-08-22T22:24:21.663Z,55.83
2018-08-22T22:26:55.103Z,55.22
2018-08-22T22:29:30.892Z,55.95
2018-08-22T22:32:04.275Z,55.89
2018-08-22T22:34:37.875Z,56.10
2018-08-22T22:37:11.253Z,55.55
2018-08-22T22:39:45.722Z,55.84
2018-08-22T22:42:24.459Z,55.58
2018-08-22T22:44:59.071Z,55.78
2018-08-22T22:47:33.807Z,55.90
2018-08-22T22:50:07.272Z,55.38
2018-08-22T22:52:42.048Z,55.71
2018-08-22T22:55:15.462Z,55.75
2018-08-22T22:57:49.012Z,56.14
2018-08-22T23:00:22.588Z,56.08
2018-08-22T23:03:01.318Z,55.81
2018-08-22T23:05:35.000Z,55.84
2018-08-22T23:08:08.573Z,56.29
2018-08-22T23:10:42.173Z,56.31
2018-08-22T23:13:15.708Z,56.44
2018-08-22T23:15:49.314Z,56.58
2018-08-22T23:18:22.965Z,56.88
2018-08-22T23:23:37.000Z,56.74
2018-08-22T23:26:26.204Z,57.13
2018-08-22T23:28:59.782Z,56.65
2018-08-22T23:31:33.375Z,56.98
2018-08-22T23:34:06.945Z,57.25
2018-08-22T23:36:40.535Z,57.57
2018-08-22T23:39:14.100Z,57.50
2018-08-22T23:41:47.713Z,57.21
2018-08-22T23:44:21.279Z,58.05
2018-08-22T23:46:54.919Z,58.26
2018-08-22T23:49:28.565Z,57.96
2018-08-22T23:52:02.154Z,58.71
2018-08-22T23:54:35.978Z,58.39
2018-08-22T23:57:09.622Z,58.11
2018-08-22T23:59:43.157Z,58.01
